Time;durP1;ratioP1;P1;durP2;ratioP2;P2;SDS_P1;SDS_P2;PMS_P1;PMS_P2;Temp;Humidity;BMP_temperature;BMP_pressure;BME280_temperature;BME280_humidity;BME280_pressure;Samples;Min_cycle;Max_cycle;Signal;HPM_P1;HPM_P2
2022/07/22 00:00:23;;;;;;;10.80;9.80;;;20.80;99.90;;;;;;5038218;28;20558;-78
2022/07/22 00:02:50;;;;;;;10.83;9.90;;;20.80;99.90;;;;;;5039191;28;20791;-78
2022/07/22 00:05:17;;;;;;;11.00;9.40;;;20.90;99.90;;;;;;5039811;28;20475;-78
2022/07/22 00:07:43;;;;;;;11.23;8.73;;;21.00;99.90;;;;;;5040804;28;20457;-78
2022/07/22 00:10:11;;;;;;;8.83;7.93;;;20.90;99.90;;;;;;5038459;28;20453;-78
2022/07/22 00:12:40;;;;;;;10.30;8.67;;;21.00;99.90;;;;;;5036857;28;20549;-78
2022/07/22 00:15:09;;;;;;;8.83;8.13;;;21.10;99.90;;;;;;5037268;28;20969;-78
2022/07/22 00:17:37;;;;;;;9.43;8.63;;;21.00;99.90;;;;;;5035296;28;20450;-78
2022/07/22 00:20:04;;;;;;;9.60;8.83;;;21.00;99.90;;;;;;5037426;28;20545;-78
2022/07/22 00:22:31;;;;;;;8.37;7.57;;;21.10;99.90;;;;;;5037681;28;20952;-78
2022/07/22 00:24:58;;;;;;;9.23;8.43;;;21.00;99.90;;;;;;5037407;28;21015;-78
2022/07/22 00:27:25;;;;;;;7.73;7.03;;;21.00;99.90;;;;;;5036561;28;20513;-78
2022/07/22 00:29:53;;;;;;;8.60;7.80;;;21.20;99.90;;;;;;5036350;28;20474;-78
2022/07/22 00:32:20;;;;;;;8.10;7.40;;;21.10;99.90;;;;;;5034988;28;20473;-78
2022/07/22 00:34:46;;;;;;;8.90;8.03;;;21.10;99.90;;;;;;5035477;28;20791;-77
2022/07/22 00:37:13;;;;;;;9.27;8.40;;;21.00;99.90;;;;;;5036243;28;20449;-77
2022/07/22 00:39:40;;;;;;;10.33;7.83;;;20.80;99.90;;;;;;5035420;28;20466;-77
2022/07/22 00:42:07;;;;;;;7.77;7.07;;;21.00;99.90;;;;;;5034517;28;20484;-76
2022/07/22 00:44:33;;;;;;;9.90;8.90;;;21.10;99.90;;;;;;5034631;28;20438;-77
2022/07/22 00:47:01;;;;;;;8.80;7.93;;;21.10;99.90;;;;;;5034265;28;20490;-77
2022/07/22 00:49:28;;;;;;;9.33;8.43;;;21.00;99.90;;;;;;5034071;28;20528;-77
2022/07/22 00:51:55;;;;;;;10.27;9.20;;;21.10;99.90;;;;;;5034035;28;20842;-78
2022/07/22 00:54:22;;;;;;;11.13;10.03;;;21.00;99.90;;;;;;5035537;28;20513;-78
2022/07/22 00:56:49;;;;;;;9.17;8.37;;;21.10;99.90;;;;;;5034848;28;20447;-78
2022/07/22 00:59:15;;;;;;;9.70;8.80;;;21.10;99.90;;;;;;5036796;28;21023;-78
2022/07/22 01:01:42;;;;;;;8.60;7.90;;;21.10;99.90;;;;;;5037544;28;20453;-78
2022/07/22 01:04:10;;;;;;;9.30;8.50;;;21.10;99.90;;;;;;5035151;28;20828;-78
2022/07/22 01:06:37;;;;;;;8.77;8.03;;;21.00;99.90;;;;;;5035095;28;20482;-78
2022/07/22 01:09:04;;;;;;;10.27;7.53;;;21.00;99.90;;;;;;5035964;28;20528;-77
2022/07/22 01:11:31;;;;;;;8.17;7.47;;;21.00;99.90;;;;;;5035779;28;20564;-78
2022/07/22 01:13:58;;;;;;;8.83;8.03;;;20.90;99.90;;;;;;5035907;28;20450;-78
2022/07/22 01:16:26;;;;;;;7.97;7.27;;;21.00;99.90;;;;;;5035711;28;20450;-78
2022/07/22 01:18:52;;;;;;;7.73;7.03;;;21.00;99.90;;;;;;5035492;28;20470;-78
2022/07/22 01:21:20;;;;;;;9.60;7.63;;;20.90;99.90;;;;;;5034624;28;20447;-78
2022/07/22 01:23:47;;;;;;;8.33;7.53;;;21.00;99.90;;;;;;5034519;28;20450;-79
2022/07/22 01:26:15;;;;;;;7.60;7.00;;;20.90;99.90;;;;;;5033933;28;20487;-78
2022/07/22 01:28:42;;;;;;;7.20;6.60;;;21.00;99.90;;;;;;5036268;28;20520;-78
2022/07/22 01:31:09;;;;;;;7.63;6.93;;;21.00;99.90;;;;;;5044988;28;20454;-77
2022/07/22 01:33:36;;;;;;;7.47;6.77;;;20.90;99.90;;;;;;5046516;28;20446;-77
2022/07/22 01:36:03;;;;;;;7.40;6.80;;;20.90;99.90;;;;;;5044658;28;20445;-78
2022/07/22 01:38:32;;;;;;;8.33;7.53;;;20.80;99.90;;;;;;5038275;28;20978;-78
2022/07/22 01:40:59;;;;;;;7.40;6.70;;;20.80;99.90;;;;;;5038317;28;20496;-78
2022/07/22 01:43:25;;;;;;;7.17;6.57;;;20.70;99.90;;;;;;5040186;28;20458;-78
2022/07/22 01:45:53;;;;;;;7.23;6.63;;;20.80;99.90;;;;;;5037703;28;20853;-78
2022/07/22 01:48:21;;;;;;;7.60;6.80;;;20.70;99.90;;;;;;5038233;28;20486;-78
2022/07/22 01:50:48;;;;;;;6.23;5.73;;;20.60;99.90;;;;;;5038537;28;20427;-78
2022/07/22 01:53:15;;;;;;;7.00;6.40;;;20.60;99.90;;;;;;5038036;28;20929;-78
2022/07/22 01:55:43;;;;;;;7.23;6.63;;;20.70;99.90;;;;;;5037505;28;20446;-78
2022/07/22 01:58:10;;;;;;;7.70;7.00;;;20.80;99.90;;;;;;5037102;28;20466;-78
2022/07/22 02:00:37;;;;;;;8.10;7.30;;;20.60;99.90;;;;;;5037235;28;20516;-78
2022/07/22 02:03:04;;;;;;;6.87;6.27;;;20.70;99.90;;;;;;5040348;28;20846;-78
2022/07/22 02:05:31;;;;;;;6.30;5.80;;;20.70;99.90;;;;;;5041191;28;20476;-78
2022/07/22 02:08:01;;;;;;;6.73;6.20;;;20.30;99.90;;;;;;5038958;28;20447;-78
2022/07/22 02:10:29;;;;;;;7.13;6.53;;;20.60;99.90;;;;;;5038138;28;20435;-78
2022/07/22 02:12:57;;;;;;;6.97;6.37;;;20.50;99.90;;;;;;5036626;28;20454;-78
2022/07/22 02:15:24;;;;;;;8.00;7.20;;;20.50;99.90;;;;;;5036250;28;20446;-78
2022/07/22 02:17:50;;;;;;;7.23;6.57;;;20.10;99.90;;;;;;5036446;28;20457;-78
2022/07/22 02:20:17;;;;;;;7.37;6.27;;;20.30;99.90;;;;;;5036785;28;20450;-78
2022/07/22 02:22:44;;;;;;;6.93;6.33;;;20.30;99.90;;;;;;5036698;28;20457;-78
2022/07/22 02:25:11;;;;;;;6.87;6.27;;;20.30;99.90;;;;;;5036900;28;20443;-78
2022/07/22 02:27:38;;;;;;;6.97;6.27;;;20.40;99.90;;;;;;5036533;28;20544;-77
2022/07/22 02:30:08;;;;;;;5.87;5.37;;;20.50;99.90;;;;;;5036286;28;20470;-78
2022/07/22 02:32:35;;;;;;;7.80;7.20;;;20.30;99.90;;;;;;5036212;28;20972;-78
2022/07/22 02:35:02;;;;;;;7.80;7.20;;;20.30;99.90;;;;;;5037137;28;20501;-78
2022/07/22 02:37:29;;;;;;;6.27;5.77;;;;;;;;;;5036507;28;20442;-78
2022/07/22 02:39:56;;;;;;;7.40;6.70;;;20.10;99.90;;;;;;5037731;28;20466;-77
2022/07/22 02:42:22;;;;;;;7.87;6.47;;;20.20;99.90;;;;;;5039182;28;20453;-77
2022/07/22 02:44:49;;;;;;;7.30;6.60;;;20.20;99.90;;;;;;5035565;28;20451;-78
2022/07/22 02:47:17;;;;;;;7.53;6.90;;;20.10;99.90;;;;;;5042614;28;20482;-77
2022/07/22 02:49:44;;;;;;;7.47;6.63;;;20.10;99.90;;;;;;5044291;28;20501;-77
2022/07/22 02:52:10;;;;;;;8.00;7.30;;;19.90;99.90;;;;;;5042222;28;20455;-77
2022/07/22 02:54:37;;;;;;;8.13;7.33;;;19.90;99.90;;;;;;5037794;28;20941;-78
2022/07/22 02:57:04;;;;;;;7.67;6.97;;;19.90;99.90;;;;;;5037291;28;20443;-77
2022/07/22 02:59:31;;;;;;;7.70;7.10;;;19.80;99.90;;;;;;5044339;28;20463;-77
2022/07/22 03:01:57;;;;;;;9.20;8.43;;;19.90;99.90;;;;;;5044061;28;20450;-77
2022/07/22 03:04:25;;;;;;;8.73;7.97;;;20.00;99.90;;;;;;5043762;28;20836;-77
2022/07/22 03:06:52;;;;;;;8.70;7.90;;;20.00;99.90;;;;;;5042558;28;20492;-77
2022/07/22 03:09:19;;;;;;;7.30;6.60;;;20.00;99.90;;;;;;5038400;28;20471;-77
2022/07/22 03:11:46;;;;;;;8.43;7.63;;;19.90;99.90;;;;;;5035370;28;20446;-77
2022/07/22 03:14:12;;;;;;;9.37;8.47;;;19.90;99.90;;;;;;5036527;28;20477;-77
2022/07/22 03:16:39;;;;;;;8.80;7.90;;;19.80;99.90;;;;;;5040741;28;20441;-77
2022/07/22 03:19:06;;;;;;;8.03;7.23;;;19.90;99.90;;;;;;5039786;28;20466;-77
2022/07/22 03:21:34;;;;;;;8.83;8.13;;;19.90;99.90;;;;;;5041304;28;20458;-78
2022/07/22 03:24:01;;;;;;;8.30;7.60;;;19.90;99.90;;;;;;5041450;28;20449;-77
2022/07/22 03:26:27;;;;;;;8.77;7.97;;;19.90;99.90;;;;;;5042228;28;20589;-77
2022/07/22 03:28:54;;;;;;;10.87;9.77;;;19.90;99.90;;;;;;5042058;28;20467;-77
2022/07/22 03:31:21;;;;;;;9.67;8.73;;;19.90;99.90;;;;;;5041891;28;20945;-77
2022/07/22 03:33:47;;;;;;;9.80;9.00;;;19.80;99.90;;;;;;5035496;28;20451;-77
2022/07/22 03:36:14;;;;;;;9.23;8.43;;;19.70;99.90;;;;;;5036819;28;20438;-77
2022/07/22 03:38:42;;;;;;;9.40;8.50;;;19.70;99.90;;;;;;5037828;28;20467;-77
2022/07/22 03:41:09;;;;;;;10.47;9.20;;;19.70;99.90;;;;;;5037108;28;20457;-77
2022/07/22 03:43:36;;;;;;;10.57;9.60;;;19.70;99.90;;;;;;5035945;28;20545;-77
2022/07/22 03:46:03;;;;;;;10.70;9.60;;;19.70;99.90;;;;;;5036248;28;20525;-77
2022/07/22 03:48:29;;;;;;;10.33;9.53;;;19.60;99.90;;;;;;5035074;28;20490;-78
2022/07/22 03:50:56;;;;;;;10.83;9.73;;;19.60;99.90;;;;;;5035099;28;20431;-77
2022/07/22 03:53:23;;;;;;;10.50;9.40;;;19.70;99.90;;;;;;5035004;28;20458;-78
2022/07/22 03:55:51;;;;;;;11.07;9.97;;;19.60;99.90;;;;;;5034695;28;20442;-78
2022/07/22 03:58:18;;;;;;;10.17;9.27;;;19.70;99.90;;;;;;5035586;28;20474;-77
2022/07/22 04:00:45;;;;;;;10.50;9.40;;;19.60;99.90;;;;;;5035335;28;20466;-78
2022/07/22 04:03:12;;;;;;;12.60;11.30;;;19.60;99.90;;;;;;5036100;28;20861;-78
2022/07/22 04:05:39;;;;;;;10.80;9.70;;;19.70;99.90;;;;;;5034976;28;20443;-77
2022/07/22 04:08:05;;;;;;;10.27;9.20;;;19.70;99.90;;;;;;5035026;28;20563;-77
2022/07/22 04:10:32;;;;;;;11.90;9.53;;;19.60;99.90;;;;;;5034602;28;20454;-77
2022/07/22 04:13:01;;;;;;;11.13;10.03;;;19.70;99.90;;;;;;5034592;28;20450;-77
2022/07/22 04:15:28;;;;;;;13.23;11.00;;;19.70;99.90;;;;;;5034384;28;20498;-77
2022/07/22 04:17:55;;;;;;;11.07;9.63;;;19.80;99.90;;;;;;5034557;28;20481;-77
2022/07/22 04:20:21;;;;;;;11.70;10.57;;;19.80;99.90;;;;;;5034537;28;20453;-77
2022/07/22 04:22:48;;;;;;;11.97;10.87;;;19.80;99.90;;;;;;5034372;28;20451;-77
2022/07/22 04:25:15;;;;;;;10.70;9.60;;;19.80;99.90;;;;;;5034323;28;20454;-77
2022/07/22 04:27:41;;;;;;;11.70;10.50;;;19.50;99.90;;;;;;5034047;28;20536;-77
2022/07/22 04:30:10;;;;;;;13.30;10.57;;;19.80;99.90;;;;;;5033732;28;20451;-77
2022/07/22 04:32:37;;;;;;;11.57;10.47;;;19.80;99.90;;;;;;5034312;28;20457;-78
2022/07/22 04:35:05;;;;;;;11.77;10.60;;;19.80;99.90;;;;;;5034831;28;20443;-78
2022/07/22 04:37:32;;;;;;;12.40;11.20;;;19.80;99.90;;;;;;5035166;28;20473;-79
2022/07/22 04:39:58;;;;;;;12.57;11.30;;;20.00;99.90;;;;;;5035550;28;20477;-78
2022/07/22 04:42:25;;;;;;;12.80;10.37;;;20.00;99.90;;;;;;5035925;28;20982;-78
2022/07/22 04:44:52;;;;;;;13.60;12.20;;;20.20;99.90;;;;;;5034516;28;20451;-78
2022/07/22 04:47:20;;;;;;;15.37;12.53;;;20.10;99.90;;;;;;5034423;28;20482;-78
2022/07/22 04:49:46;;;;;;;14.90;12.90;;;20.00;99.90;;;;;;5035019;28;20482;-77
2022/07/22 04:52:13;;;;;;;14.23;12.73;;;20.10;99.90;;;;;;5035051;28;20454;-78
2022/07/22 04:54:40;;;;;;;15.00;12.97;;;20.10;99.90;;;;;;5034919;28;20454;-78
2022/07/22 04:57:07;;;;;;;14.17;12.77;;;20.10;99.90;;;;;;5034759;28;20784;-78
2022/07/22 04:59:33;;;;;;;13.47;11.63;;;20.20;99.90;;;;;;5038179;28;20521;-78
2022/07/22 05:02:00;;;;;;;13.40;12.03;;;20.10;99.90;;;;;;5036646;28;20962;-78
2022/07/22 05:04:28;;;;;;;11.80;10.67;;;20.00;99.90;;;;;;5048554;28;20454;-78
2022/07/22 05:06:55;;;;;;;13.20;11.93;;;20.00;99.90;;;;;;5044686;28;21019;-77
2022/07/22 05:09:22;;;;;;;18.90;16.93;;;20.10;99.90;;;;;;5037742;28;20466;-78
2022/07/22 05:11:48;;;;;;;14.47;13.07;;;20.20;99.90;;;;;;5037849;28;20446;-77
2022/07/22 05:14:15;;;;;;;13.80;11.70;;;20.20;99.90;;;;;;5038365;28;20825;-78
2022/07/22 05:16:42;;;;;;;18.60;13.60;;;20.20;99.90;;;;;;5040356;28;20521;-77
2022/07/22 05:19:09;;;;;;;13.43;12.03;;;20.00;99.90;;;;;;5049136;28;20470;-77
2022/07/22 05:21:37;;;;;;;14.80;13.40;;;20.10;99.90;;;;;;5049104;28;20450;-77
2022/07/22 05:24:04;;;;;;;14.90;13.40;;;20.20;99.90;;;;;;5039403;28;20457;-78
2022/07/22 05:26:33;;;;;;;13.23;12.03;;;20.20;99.90;;;;;;5038386;28;20443;-78
2022/07/22 05:29:00;;;;;;;14.70;13.27;;;20.10;99.90;;;;;;5038325;28;20474;-78
2022/07/22 05:31:26;;;;;;;12.83;11.73;;;20.10;99.90;;;;;;5038664;28;20816;-78
2022/07/22 05:33:53;;;;;;;14.40;13.00;;;20.00;99.90;;;;;;5037939;28;20832;-78
2022/07/22 05:36:20;;;;;;;13.53;12.23;;;20.10;99.90;;;;;;5038397;28;20451;-78
2022/07/22 05:38:48;;;;;;;13.07;11.80;;;20.20;99.90;;;;;;5044992;28;20577;-78
2022/07/22 05:41:15;;;;;;;13.40;12.10;;;20.30;99.90;;;;;;5048312;28;20537;-77
2022/07/22 05:43:42;;;;;;;13.40;12.00;;;20.40;99.90;;;;;;5036271;28;20473;-77
2022/07/22 05:46:08;;;;;;;15.30;13.70;;;20.40;99.90;;;;;;5043022;28;20457;-77
2022/07/22 05:48:35;;;;;;;14.63;13.20;;;20.40;99.90;;;;;;5043385;28;20520;-77
2022/07/22 05:51:02;;;;;;;12.47;11.23;;;20.50;99.90;;;;;;5037783;28;20790;-77
2022/07/22 05:53:28;;;;;;;13.20;11.83;;;20.40;99.90;;;;;;5039834;28;20454;-77
2022/07/22 05:55:56;;;;;;;15.00;12.40;;;20.30;99.90;;;;;;5038800;28;20565;-77
2022/07/22 05:58:23;;;;;;;15.37;13.80;;;20.30;99.90;;;;;;5040006;28;20466;-77
2022/07/22 06:00:50;;;;;;;13.50;12.03;;;20.30;99.90;;;;;;5039852;28;20442;-77
2022/07/22 06:03:17;;;;;;;13.03;11.80;;;20.30;99.90;;;;;;5037586;28;20451;-77
2022/07/22 06:05:43;;;;;;;12.83;11.70;;;20.30;99.90;;;;;;5036785;28;20466;-77
2022/07/22 06:08:10;;;;;;;13.73;12.43;;;20.60;99.90;;;;;;5052484;22;21035;-79
2022/07/22 06:10:37;;;;;;;15.23;13.50;;;20.60;99.90;;;;;;5063304;28;20812;-78
2022/07/22 06:13:05;;;;;;;15.00;12.70;;;20.60;99.90;;;;;;5057848;28;20446;-78
2022/07/22 06:15:32;;;;;;;14.20;12.60;;;20.60;99.90;;;;;;5059933;28;20786;-79
2022/07/22 06:17:58;;;;;;;13.90;12.50;;;20.60;99.90;;;;;;5064512;28;20528;-79
2022/07/22 06:20:25;;;;;;;14.17;11.53;;;20.70;99.90;;;;;;5065713;28;20450;-78
2022/07/22 06:22:52;;;;;;;13.00;11.70;;;20.60;99.90;;;;;;5065076;28;20441;-79
2022/07/22 06:25:19;;;;;;;13.83;12.57;;;20.80;99.90;;;;;;5063112;28;20446;-78
2022/07/22 06:27:45;;;;;;;15.30;13.40;;;20.80;99.90;;;;;;5061201;28;20466;-78
2022/07/22 06:30:14;;;;;;;14.13;12.40;;;20.80;99.90;;;;;;5076135;28;20468;-78
2022/07/22 06:32:41;;;;;;;12.73;11.43;;;20.80;99.90;;;;;;5076884;28;20446;-78
2022/07/22 06:35:11;;;;;;;14.70;12.40;;;20.90;99.90;;;;;;5072920;28;20438;-78
2022/07/22 06:37:37;;;;;;;14.50;13.10;;;21.00;99.90;;;;;;5062266;28;20862;-79
2022/07/22 06:40:05;;;;;;;13.90;12.20;;;21.00;99.90;;;;;;5061058;28;20496;-78
2022/07/22 06:42:32;;;;;;;13.37;12.17;;;21.00;99.90;;;;;;5061134;28;20453;-78
2022/07/22 06:44:58;;;;;;;13.30;12.10;;;21.00;99.90;;;;;;5061033;28;20450;-78
2022/07/22 06:47:26;;;;;;;12.43;11.37;;;21.20;99.90;;;;;;5061639;28;20484;-78
2022/07/22 06:49:53;;;;;;;11.90;10.80;;;21.10;99.90;;;;;;5059367;28;20480;-78
2022/07/22 06:52:20;;;;;;;13.33;12.23;;;21.20;99.90;;;;;;5055380;28;20453;-76
2022/07/22 06:54:46;;;;;;;13.83;12.63;;;21.30;99.90;;;;;;5055533;28;20442;-76
2022/07/22 06:57:13;;;;;;;13.13;11.93;;;21.40;99.90;;;;;;5055526;28;20438;-79
2022/07/22 06:59:40;;;;;;;12.13;11.07;;;21.40;99.90;;;;;;5061064;28;20481;-85
2022/07/22 07:02:07;;;;;;;12.47;11.33;;;21.30;99.90;;;;;;5057004;28;20450;-86
2022/07/22 07:04:35;;;;;;;13.53;12.23;;;21.50;99.90;;;;;;5065878;28;20448;-86
2022/07/22 07:07:01;;;;;;;13.07;11.20;;;21.40;99.90;;;;;;5069552;28;20521;-86
2022/07/22 07:09:30;;;;;;;11.40;10.40;;;21.50;99.90;;;;;;5069628;28;20461;-85
2022/07/22 07:11:57;;;;;;;13.27;11.27;;;21.60;99.90;;;;;;5066432;28;20444;-86
2022/07/22 07:14:24;;;;;;;14.33;11.20;;;21.60;99.90;;;;;;5056808;28;20455;-86
2022/07/22 07:16:51;;;;;;;12.27;11.17;;;21.70;99.90;;;;;;5062130;28;20446;-85
2022/07/22 07:19:19;;;;;;;11.40;10.30;;;21.60;99.90;;;;;;5069630;28;20802;-86
2022/07/22 07:21:47;;;;;;;14.63;13.20;;;21.70;99.90;;;;;;5070345;28;20957;-86
2022/07/22 07:24:14;;;;;;;12.60;11.27;;;21.70;99.90;;;;;;5057853;28;20448;-86
2022/07/22 07:26:41;;;;;;;12.90;11.20;;;21.70;99.90;;;;;;5055773;28;20834;-86
2022/07/22 07:29:07;;;;;;;10.90;10.00;;;21.80;99.90;;;;;;5056544;28;20964;-86
2022/07/22 07:31:35;;;;;;;11.97;10.80;;;21.80;99.90;;;;;;5060849;28;20457;-86
2022/07/22 07:34:01;;;;;;;11.80;10.80;;;21.80;99.90;;;;;;5069009;28;20505;-84
2022/07/22 07:36:28;;;;;;;11.17;10.00;;;21.90;99.90;;;;;;5061382;28;20453;-85
2022/07/22 07:38:56;;;;;;;11.13;10.10;;;22.00;99.90;;;;;;5058014;28;20466;-85
2022/07/22 07:41:23;;;;;;;10.47;9.60;;;22.00;99.90;;;;;;5056848;28;20453;-86
2022/07/22 07:43:49;;;;;;;10.83;9.60;;;22.10;99.90;;;;;;5056559;28;20480;-85
2022/07/22 07:46:17;;;;;;;9.67;8.67;;;22.20;99.90;;;;;;5056189;28;20817;-85
2022/07/22 07:48:43;;;;;;;9.73;8.97;;;22.20;99.90;;;;;;5055461;28;21022;-85
2022/07/22 07:51:11;;;;;;;9.63;8.63;;;22.30;99.90;;;;;;5055194;28;20452;-86
2022/07/22 07:53:37;;;;;;;12.83;9.77;;;22.40;99.90;;;;;;5055855;28;20446;-86
2022/07/22 07:56:06;;;;;;;8.90;8.00;;;22.40;99.90;;;;;;5055277;28;20525;-86
2022/07/22 07:58:33;;;;;;;7.87;7.17;;;22.50;99.90;;;;;;5057444;28;20470;-86
2022/07/22 08:01:00;;;;;;;8.73;8.00;;;22.60;99.90;;;;;;5056113;28;20815;-86
2022/07/22 08:03:27;;;;;;;9.40;8.50;;;22.60;99.90;;;;;;5056144;28;20456;-86
2022/07/22 08:05:54;;;;;;;8.70;8.00;;;22.70;99.90;;;;;;5055556;28;20441;-86
2022/07/22 08:08:21;;;;;;;8.17;7.37;;;22.70;99.90;;;;;;5057237;28;20490;-86
2022/07/22 08:10:48;;;;;;;9.97;9.00;;;22.80;99.90;;;;;;5056487;28;20425;-86
2022/07/22 08:13:16;;;;;;;10.03;9.13;;;23.00;99.90;;;;;;5056482;28;20818;-86
2022/07/22 08:15:43;;;;;;;9.10;8.40;;;22.90;99.90;;;;;;5056045;28;20460;-86
2022/07/22 08:18:10;;;;;;;8.37;7.33;;;23.20;99.90;;;;;;5056918;28;20877;-86
2022/07/22 08:20:36;;;;;;;8.43;7.73;;;22.90;99.90;;;;;;5055866;28;20464;-86
2022/07/22 08:23:04;;;;;;;10.10;9.20;;;22.80;99.90;;;;;;5055406;28;20453;-86
2022/07/22 08:25:35;;;;;;;10.40;7.70;;;22.70;99.90;;;;;;5055878;28;20454;-85
2022/07/22 08:28:02;;;;;;;7.80;7.20;;;23.10;99.90;;;;;;5055544;28;20481;-85
2022/07/22 08:30:30;;;;;;;7.90;7.30;;;23.10;99.90;;;;;;5037304;28;20495;-85
2022/07/22 08:32:57;;;;;;;7.53;6.83;;;23.20;99.90;;;;;;5054959;28;20445;-85
2022/07/22 08:35:25;;;;;;;8.10;7.40;;;23.30;99.90;;;;;;5069678;28;20461;-85
2022/07/22 08:37:51;;;;;;;8.10;7.40;;;23.20;99.90;;;;;;5073137;28;20477;-86
2022/07/22 08:40:19;;;;;;;7.43;6.83;;;23.10;99.90;;;;;;5075230;28;20466;-85
2022/07/22 08:42:48;;;;;;;8.07;7.23;;;23.20;99.90;;;;;;5078281;28;20449;-85
2022/07/22 08:45:15;;;;;;;7.80;7.00;;;23.10;99.90;;;;;;5071618;28;20453;-86
2022/07/22 08:47:46;;;;;;;7.13;6.53;;;23.30;99.90;;;;;;5070441;28;20460;-86
2022/07/22 08:50:13;;;;;;;6.20;5.70;;;23.40;99.90;;;;;;5077194;28;20484;-85
2022/07/22 08:52:40;;;;;;;7.53;6.93;;;23.60;99.90;;;;;;5062771;28;20449;-86
2022/07/22 08:55:09;;;;;;;7.67;6.87;;;23.60;99.90;;;;;;5064955;28;20533;-86
2022/07/22 08:57:36;;;;;;;6.83;6.33;;;23.50;99.90;;;;;;5066165;28;20438;-86
2022/07/22 09:00:10;;;;;;;7.00;6.40;;;23.20;99.90;;;;;;5060074;28;20523;-86
2022/07/22 09:02:38;;;;;;;6.97;6.40;;;23.00;99.90;;;;;;5057170;28;20434;-85
2022/07/22 09:05:08;;;;;;;8.13;7.37;;;23.00;99.90;;;;;;5058004;28;20477;-84
2022/07/22 09:07:36;;;;;;;7.07;6.37;;;22.90;99.90;;;;;;5067996;28;20438;-85
2022/07/22 09:10:06;;;;;;;7.90;6.50;;;22.90;99.90;;;;;;5070936;28;20476;-85
2022/07/22 09:12:34;;;;;;;7.87;7.27;;;22.80;99.90;;;;;;5062836;28;20446;-85
2022/07/22 09:15:03;;;;;;;7.93;6.60;;;22.80;99.90;;;;;;5055027;28;20827;-85
2022/07/22 09:17:35;;;;;;;6.60;6.13;;;22.60;99.90;;;;;;5057474;28;20456;-85
2022/07/22 09:20:04;;;;;;;8.10;7.50;;;22.60;99.90;;;;;;5061490;28;20466;-85
2022/07/22 09:22:40;;;;;;;7.33;6.83;;;22.70;99.90;;;;;;5068684;28;20446;-86
2022/07/22 09:25:22;;;;;;;8.90;7.03;;;22.80;99.90;;;;;;5059779;28;20889;-85
2022/07/22 09:27:50;;;;;;;6.90;6.40;;;22.90;99.90;;;;;;5059624;28;20590;-86
2022/07/22 09:30:19;;;;;;;6.47;5.80;;;22.90;99.90;;;;;;5055721;28;20485;-85
2022/07/22 09:32:47;;;;;;;6.40;5.80;;;23.10;99.90;;;;;;5059664;28;20449;-85
2022/07/22 09:35:15;;;;;;;8.50;7.70;;;23.20;99.90;;;;;;5058702;28;20460;-84
2022/07/22 09:37:51;;;;;;;6.03;5.53;;;23.30;99.90;;;;;;5064225;28;20429;-86
2022/07/22 09:40:20;;;;;;;6.93;6.33;;;23.20;99.90;;;;;;5059873;28;20500;-86
2022/07/22 09:42:50;;;;;;;6.87;6.37;;;23.10;99.90;;;;;;5058183;28;20972;-85
2022/07/22 09:45:18;;;;;;;6.73;6.13;;;23.00;99.90;;;;;;5058380;28;20438;-85
2022/07/22 09:47:46;;;;;;;6.97;6.47;;;22.90;99.90;;;;;;5061797;28;20450;-85
2022/07/22 09:50:18;;;;;;;7.27;6.57;;;22.90;99.90;;;;;;5065328;28;20472;-86
2022/07/22 09:52:45;;;;;;;6.23;5.83;;;22.80;99.90;;;;;;5065672;28;20928;-86
2022/07/22 09:55:14;;;;;;;5.97;5.47;;;22.70;99.90;;;;;;5062434;28;20444;-85
2022/07/22 09:57:41;;;;;;;5.87;5.37;;;22.70;99.90;;;;;;5060146;28;20473;-85
2022/07/22 10:00:09;;;;;;;4.90;4.60;;;22.60;99.90;;;;;;5059422;28;20461;-85
2022/07/22 10:02:42;;;;;;;5.33;4.93;;;22.70;99.90;;;;;;5058838;28;20881;-86
2022/07/22 10:05:11;;;;;;;4.50;4.20;;;22.70;99.90;;;;;;5059121;28;20437;-86
2022/07/22 10:07:39;;;;;;;4.33;4.03;;;22.80;99.90;;;;;;5058792;28;20449;-86
2022/07/22 10:10:09;;;;;;;4.43;4.13;;;22.90;99.90;;;;;;5058038;28;20490;-85
2022/07/22 10:12:38;;;;;;;4.10;2.90;;;22.90;99.90;;;;;;5057095;28;20956;-85
2022/07/22 10:15:07;;;;;;;3.67;3.37;;;23.00;99.90;;;;;;5058072;28;20481;-85
2022/07/22 10:17:36;;;;;;;3.67;3.47;;;22.80;99.90;;;;;;5061873;28;20886;-85
2022/07/22 10:20:03;;;;;;;3.10;2.90;;;23.00;99.90;;;;;;5058279;28;20511;-85
2022/07/22 10:22:56;;;;;;;3.73;3.43;;;23.00;99.90;;;;;;5068505;28;20402;-84
2022/07/22 10:25:25;;;;;;;3.70;3.40;;;23.00;99.90;;;;;;5080054;28;20426;-84
2022/07/22 10:27:56;;;;;;;3.73;3.50;;;23.20;99.90;;;;;;5079877;28;20426;-85
2022/07/22 10:30:26;;;;;;;3.87;3.47;;;23.40;99.90;;;;;;5080003;28;20545;-85
2022/07/22 10:33:04;;;;;;;5.00;4.50;;;23.60;99.90;;;;;;5080042;28;20434;-84
2022/07/22 10:35:31;;;;;;;3.90;3.70;;;23.70;99.90;;;;;;5079321;28;20912;-85
2022/07/22 10:38:10;;;;;;;4.80;4.40;;;23.50;99.90;;;;;;5079453;28;20472;-85
2022/07/22 10:40:52;;;;;;;4.73;4.43;;;23.70;99.90;;;;;;5080157;28;20568;-84
2022/07/22 10:43:21;;;;;;;5.23;4.77;;;23.80;99.90;;;;;;5062682;28;20438;-85
2022/07/22 10:45:51;;;;;;;4.30;4.00;;;23.90;99.90;;;;;;5058109;28;20804;-84
2022/07/22 10:48:23;;;;;;;5.07;4.67;;;23.80;99.90;;;;;;5058918;28;20474;-84
2022/07/22 10:51:08;;;;;;;4.23;4.03;;;23.80;99.90;;;;;;5057499;28;20446;-85
2022/07/22 10:53:47;;;;;;;4.80;4.40;;;23.70;99.90;;;;;;5058935;28;20462;-84
2022/07/22 10:56:23;;;;;;;4.93;4.53;;;23.70;99.90;;;;;;5057702;28;20430;-84
2022/07/22 10:58:59;;;;;;;4.50;4.20;;;23.70;99.90;;;;;;5059427;28;20454;-85
2022/07/22 11:01:29;;;;;;;4.87;4.47;;;23.90;99.90;;;;;;5060563;28;20434;-85
2022/07/22 11:04:07;;;;;;;6.63;4.60;;;24.00;99.90;;;;;;5060306;28;20430;-85
2022/07/22 11:06:34;;;;;;;5.87;5.47;;;23.80;99.90;;;;;;5058615;28;20437;-84
2022/07/22 11:09:03;;;;;;;5.90;5.50;;;23.90;99.90;;;;;;5057287;28;20493;-85
2022/07/22 11:11:40;;;;;;;5.73;5.23;;;24.00;99.90;;;;;;5057319;28;20453;-85
2022/07/22 11:14:21;;;;;;;5.03;4.73;;;24.10;99.90;;;;;;5057691;28;20466;-85
2022/07/22 11:16:49;;;;;;;5.07;4.77;;;24.00;99.90;;;;;;5056691;28;20440;-85
2022/07/22 11:19:20;;;;;;;4.97;4.67;;;24.10;99.90;;;;;;5058711;28;20477;-84
2022/07/22 11:21:51;;;;;;;5.17;4.77;;;24.10;99.90;;;;;;5057869;28;20433;-85
2022/07/22 11:24:19;;;;;;;5.53;5.13;;;23.90;99.90;;;;;;5058104;28;20484;-85
2022/07/22 11:26:48;;;;;;;4.90;4.60;;;23.70;99.90;;;;;;5057508;28;20454;-85
2022/07/22 11:29:24;;;;;;;5.43;4.93;;;23.60;99.90;;;;;;5058347;28;20477;-85
2022/07/22 11:31:51;;;;;;;6.40;5.87;;;23.50;99.90;;;;;;5057330;28;20429;-84
2022/07/22 11:34:20;;;;;;;6.70;6.20;;;23.40;99.90;;;;;;5060406;28;20449;-84
2022/07/22 11:36:47;;;;;;;6.83;5.60;;;23.30;99.90;;;;;;5058259;28;20453;-84
2022/07/22 11:39:18;;;;;;;6.50;5.90;;;23.20;99.90;;;;;;5055844;28;21003;-84
2022/07/22 11:41:45;;;;;;;5.73;5.40;;;23.60;99.90;;;;;;5056924;28;20442;-85
2022/07/22 11:44:12;;;;;;;5.23;4.93;;;23.80;99.90;;;;;;5056468;28;20446;-84
2022/07/22 11:46:42;;;;;;;5.70;5.30;;;24.40;99.90;;;;;;5056230;28;20453;-85
2022/07/22 11:49:10;;;;;;;5.60;5.20;;;24.10;99.90;;;;;;5056066;28;20535;-84
2022/07/22 11:51:38;;;;;;;6.23;5.73;;;24.10;99.90;;;;;;5057061;28;20524;-85
2022/07/22 11:54:06;;;;;;;6.10;5.70;;;24.10;99.90;;;;;;5055920;28;20484;-85
2022/07/22 11:56:34;;;;;;;5.93;5.50;;;24.00;99.90;;;;;;5055695;28;20438;-84
2022/07/22 11:59:04;;;;;;;5.60;5.20;;;23.90;99.90;;;;;;5056048;28;20832;-85
2022/07/22 12:01:32;;;;;;;5.20;4.90;;;23.90;99.90;;;;;;5058282;28;20422;-83
2022/07/22 12:04:03;;;;;;;5.67;5.27;;;23.80;99.90;;;;;;5063120;28;20449;-84
2022/07/22 12:06:34;;;;;;;4.63;4.33;;;23.90;99.90;;;;;;5062397;28;20433;-84
2022/07/22 12:09:06;;;;;;;5.90;5.40;;;23.80;99.90;;;;;;5092948;22;20482;-77
2022/07/22 12:11:34;;;;;;;5.70;5.17;;;23.30;99.90;;;;;;5056928;28;20445;-79
2022/07/22 12:14:07;;;;;;;5.33;5.03;;;24.10;99.90;;;;;;5056301;28;20477;-78
2022/07/22 12:16:34;;;;;;;6.67;5.20;;;24.30;99.90;;;;;;5057363;28;20437;-78
2022/07/22 12:19:04;;;;;;;4.70;4.40;;;24.30;99.90;;;;;;5055444;28;20814;-77
2022/07/22 12:21:33;;;;;;;4.67;4.37;;;24.10;99.90;;;;;;5057023;28;20449;-78
2022/07/22 12:24:02;;;;;;;4.60;4.30;;;24.10;99.90;;;;;;5056718;28;20446;-78
2022/07/22 12:26:44;;;;;;;4.67;3.97;;;24.10;99.90;;;;;;5060165;28;20453;-77
2022/07/22 12:29:20;;;;;;;3.97;3.77;;;24.00;99.90;;;;;;5062580;28;20486;-78
2022/07/22 12:31:48;;;;;;;5.20;4.80;;;23.90;99.90;;;;;;5065642;28;20433;-77
2022/07/22 12:34:29;;;;;;;4.50;4.20;;;23.90;99.90;;;;;;5064242;28;20928;-78
2022/07/22 12:36:56;;;;;;;4.97;4.57;;;23.60;99.90;;;;;;5057555;28;20802;-78
2022/07/22 12:39:23;;;;;;;5.17;4.67;;;23.50;99.90;;;;;;5056810;28;20465;-78
2022/07/22 12:41:52;;;;;;;4.63;4.33;;;23.50;99.90;;;;;;5055524;28;20468;-78
2022/07/22 12:44:21;;;;;;;4.43;4.07;;;23.50;99.90;;;;;;5055394;28;20454;-77